Copperhill, TN (37317)

9:45 PM EDT on August 22, 2017 (GMT -0400)
HORSESHOE BEND | | Change Station

Elev 1680 ft 34.98 °N, 84.36 °W | Updated 36 seconds ago

Clear
Clear
73.5 °F
Feels Like 72 °F
N
0.0
Wind Variable Wind from NE

Today
High -- | Low -- °F
--% Chance of Precip.
Yesterday
High -- | Low -- °F
Precip. -- in
Pressure 29.96 in
Visibility 10.0 miles
Clouds Few 4800 ft
Few 5500 ft
Heat Index 72 °F
Dew Point 70 °F
Humidity 88%
Rainfall 0.00 in
Snow Depth Not available.
7:03 AM 8:16 PM
New Moon, 2% visible
METAR KRZR 230135Z AUTO 22004KT 10SM FEW048 FEW055 27/22 A2996 RMK A01
Pressure 29.96 in
Visibility 10.0 miles
Clouds Few 4800 ft
Few 5500 ft
Heat Index 72 °F
Dew Point 70 °F
Humidity 88%
Rainfall 0.00 in
Snow Depth Not available.
7:03 AM 8:16 PM
New Moon, 2% visible
METAR KRZR 230135Z AUTO 22004KT 10SM FEW048 FEW055 27/22 A2996 RMK A01

Get Severe Weather Alerts

Thanks for signing up!

Be on the lookout for a verification email in your inbox.

You'll start receiving the daily forecast at 6 AM.

×

10-Day Weather Forecast

Almanac

Astronomy

Aug. 22, 2017 Rise Set
Actual Time
Civil Twilight
Nautical Twilight
Astronomical Twilight
Moon
Length of Visible Light
Length of Day
Tomorrow will be .
, % of the Moon is Illuminated

Today's Extremes

State Highs State Lows

Community

WunderPhotos

Category 6

Welcome to Category 6. This is the collective home for Weather Underground's featured writeups by Dr. Jeff Masters (right), Bob Henson (left), Chris Burt, and other regular contributors.

Nearby

Air Quality

  Air Quality AQ Index Pollutant
Not available.

Snow Depth

Station Depth Elevation

Earthquake Activity

City Distance Mag. Time & Date
Minimum magnitude displayed is 2.5.

Coastal Water Temperatures

Place Temperature

Stations

Nearby Weather Stations

Station Location Temp. Windchill Dew Point Humidity Wind Precip. Elev Updated Type
                   

Watches & Warnings

There are currently no watches in effect.